Pagina principale
METAR-TAF:

METAR-TAF

Aeroporti :

Osijek, Croazia

Aeroporto di Osijek-Klisa

latitudine: 45-27N, longitudine: 018-48E, altezza: 88 m

Osservazione

Il bollettino è stato emesso 8 minuti fa, alle 08:00 UTC
Vento 6 kt da nord-est, variando fra nord/nord-ovest e est
Temperature 21°C
Umidità 53%
Pressione 1019 hPa
Visibilità 10 km o più
nessuna nube inferiore a 1500 m e nessun cumulonembo

METAR: LDOS 270800Z 04006KT 340V090 CAVOK 21/11 Q1019

Ora: 10:08 (08:08 UTC)

Previsione

Il bollettino è stato emesso 2 ore e 43 minuti fa, alle 05:25 UTC
Previsione valida dal 27 alle 06 UTC al 28 alle 06 UTC
Vento 8 kt da nord
Visibilità 10 km o più
nessuna nube inferiore a 1500 m e nessun cumulonembo

TAF: LDOS 270525Z 2706/2806 35008KT CAVOK TX23/2713Z TN11/2804Z

Osservazioni e previsioni meteorologiche di più di 4000 aeroporti (messaggi METAR e TAF).

Le stazioni disponibili sono rappresentate dai dischi gialli e rossi sulla carta.

Puntare il mouse per vedere il nome della stazione.

Clicca sopra per visualizzare le osservazioni e previsioni meteorologiche.

Per cambiare la mappa : fare clic sui pulsanti verdi con una croce nera per ingrandire, il pulsante verde con un trattino per diminuire, o sulla freccia verde per le mappe adiacenti.


METAR-TAF: